Time;durP1;ratioP1;P1;durP2;ratioP2;P2;SDS_P1;SDS_P2;PMS_P1;PMS_P2;Temp;Humidity;BMP_temperature;BMP_pressure;BME280_temperature;BME280_humidity;BME280_pressure;Samples;Min_cycle;Max_cycle;Signal;HPM_P1;HPM_P2
2023/04/09 00:01:03;;;;;;;18.20;16.40;;;6.20;90.80;;;;;;5027877;28;20483;-67
2023/04/09 00:03:30;;;;;;;16.87;15.20;;;6.20;91.10;;;;;;5034365;28;21044;-67
2023/04/09 00:05:57;;;;;;;17.90;16.10;;;6.30;91.10;;;;;;5046106;28;21135;-67
2023/04/09 00:08:25;;;;;;;16.63;14.47;;;6.30;91.20;;;;;;5028615;28;20448;-67
2023/04/09 00:10:52;;;;;;;15.20;13.47;;;6.30;91.10;;;;;;5028547;28;20473;-67
2023/04/09 00:13:19;;;;;;;16.53;14.83;;;6.30;91.20;;;;;;5038612;28;20545;-67
2023/04/09 00:15:47;;;;;;;16.27;14.77;;;6.30;91.00;;;;;;5049246;28;20809;-68
2023/04/09 00:18:14;;;;;;;18.17;16.30;;;6.40;90.70;;;;;;5049778;28;20444;-68
2023/04/09 00:20:41;;;;;;;18.37;16.37;;;6.40;90.50;;;;;;5051027;28;20470;-67
2023/04/09 00:23:08;;;;;;;18.70;16.90;;;6.40;90.40;;;;;;5050548;28;20451;-68
2023/04/09 00:25:36;;;;;;;19.70;17.70;;;6.40;90.40;;;;;;5051083;28;20451;-68
2023/04/09 00:28:03;;;;;;;18.37;16.47;;;6.40;90.70;;;;;;5051437;28;20450;-68
2023/04/09 00:30:30;;;;;;;18.63;16.70;;;6.30;90.80;;;;;;5051166;28;20478;-68
2023/04/09 00:32:57;;;;;;;18.47;16.27;;;6.40;91.20;;;;;;5050835;28;20488;-67
2023/04/09 00:35:24;;;;;;;18.87;17.07;;;6.40;90.70;;;;;;5050953;28;20455;-67
2023/04/09 00:37:51;;;;;;;18.90;17.00;;;6.40;90.70;;;;;;5050954;28;20891;-67
2023/04/09 00:40:18;;;;;;;18.83;17.03;;;6.50;91.20;;;;;;5051071;28;20473;-68
2023/04/09 00:42:46;;;;;;;19.23;17.10;;;6.40;91.40;;;;;;5050349;28;20442;-67
2023/04/09 00:45:13;;;;;;;18.07;16.17;;;6.40;90.70;;;;;;5050571;28;20532;-67
2023/04/09 00:47:41;;;;;;;18.53;16.53;;;6.40;90.40;;;;;;5051787;28;20456;-67
2023/04/09 00:50:09;;;;;;;18.33;16.53;;;6.40;90.30;;;;;;5050373;28;20461;-67
2023/04/09 00:52:36;;;;;;;19.20;17.27;;;6.40;90.20;;;;;;5049221;28;20477;-67
2023/04/09 00:55:05;;;;;;;19.50;17.40;;;6.40;90.30;;;;;;5049787;28;20447;-67
2023/04/09 00:57:32;;;;;;;18.00;16.13;;;6.50;90.20;;;;;;5049874;28;21043;-67
2023/04/09 01:00:00;;;;;;;20.33;18.42;;;6.40;90.10;;;;;;5013329;28;1069169;-67
2023/04/09 01:02:29;;;;;;;18.10;16.23;;;6.40;90.80;;;;;;5051571;28;20205;-67
2023/04/09 01:04:56;;;;;;;18.80;17.00;;;6.40;91.10;;;;;;5051121;28;20449;-67
2023/04/09 01:07:34;;;;;;;18.03;16.20;;;6.40;91.20;;;;;;5051273;28;20444;-67
2023/04/09 01:10:10;;;;;;;18.47;16.10;;;6.40;91.50;;;;;;5053847;28;20471;-66
2023/04/09 01:12:47;;;;;;;18.03;16.23;;;6.50;91.30;;;;;;5052632;28;20847;-67
2023/04/09 01:15:22;;;;;;;17.87;16.20;;;6.60;91.20;;;;;;5052601;28;20455;-67
2023/04/09 01:17:53;;;;;;;19.30;17.20;;;6.50;91.30;;;;;;5052368;28;20455;-67
2023/04/09 01:20:32;;;;;;;19.23;17.23;;;6.40;91.50;;;;;;5050534;28;20471;-67
2023/04/09 01:23:07;;;;;;;18.00;16.10;;;6.40;91.80;;;;;;5050485;28;20464;-67
2023/04/09 01:25:53;;;;;;;18.00;16.20;;;6.40;91.60;;;;;;5050527;28;20460;-67
2023/04/09 01:28:25;;;;;;;18.60;16.80;;;6.50;91.20;;;;;;5051121;28;20447;-67
2023/04/09 01:30:57;;;;;;;17.43;15.83;;;6.30;91.40;;;;;;5051170;28;20480;-68
2023/04/09 01:33:26;;;;;;;17.87;16.07;;;6.50;91.30;;;;;;5051267;28;20486;-67
2023/04/09 01:35:54;;;;;;;17.87;16.27;;;6.50;91.50;;;;;;5052131;28;20451;-67
2023/04/09 01:38:22;;;;;;;17.73;15.93;;;6.50;91.30;;;;;;5052549;28;20464;-67
2023/04/09 01:40:50;;;;;;;17.13;15.50;;;6.60;91.60;;;;;;5052870;28;20472;-67
2023/04/09 01:43:19;;;;;;;19.03;17.13;;;6.50;91.50;;;;;;5053266;28;20478;-67
2023/04/09 01:45:47;;;;;;;17.80;16.10;;;6.30;91.50;;;;;;5052747;28;20834;-67
2023/04/09 01:48:15;;;;;;;18.13;16.20;;;6.30;91.60;;;;;;5050456;28;20809;-66
2023/04/09 01:50:43;;;;;;;18.50;16.60;;;6.20;91.50;;;;;;5050590;28;20459;-67
2023/04/09 01:53:10;;;;;;;19.30;17.40;;;6.20;91.50;;;;;;5050126;28;20535;-67
2023/04/09 01:55:37;;;;;;;17.70;16.00;;;6.20;91.50;;;;;;5050577;28;20539;-67
2023/04/09 01:58:04;;;;;;;19.00;17.10;;;6.20;91.40;;;;;;5050994;28;20922;-67
2023/04/09 02:00:35;;;;;;;18.43;16.63;;;6.30;91.60;;;;;;5051060;28;20474;-66
2023/04/09 02:03:07;;;;;;;16.50;14.80;;;6.30;91.80;;;;;;5050970;28;20918;-66
2023/04/09 02:05:38;;;;;;;16.70;15.00;;;6.40;91.50;;;;;;5050865;28;21106;-67
2023/04/09 02:08:08;;;;;;;17.20;15.60;;;6.40;91.50;;;;;;5050549;28;20437;-67
2023/04/09 02:10:37;;;;;;;18.13;16.33;;;6.40;91.40;;;;;;5050494;28;20557;-66
2023/04/09 02:13:05;;;;;;;17.40;15.90;;;6.30;91.80;;;;;;5050673;28;21007;-67
2023/04/09 02:15:36;;;;;;;18.57;16.57;;;6.30;91.30;;;;;;5050841;28;20484;-66
2023/04/09 02:18:04;;;;;;;17.97;16.17;;;6.30;91.30;;;;;;5051709;28;20459;-67
2023/04/09 02:20:31;;;;;;;18.60;16.70;;;6.20;91.50;;;;;;5050959;28;20473;-67
2023/04/09 02:22:57;;;;;;;18.23;16.53;;;6.20;91.80;;;;;;5050995;28;20459;-67
2023/04/09 02:25:25;;;;;;;17.83;16.13;;;6.20;91.90;;;;;;5051121;28;20745;-67
2023/04/09 02:27:52;;;;;;;17.77;16.10;;;6.10;91.70;;;;;;5050225;28;20563;-67
2023/04/09 02:30:19;;;;;;;18.90;17.00;;;6.00;91.90;;;;;;5050468;28;20475;-67
2023/04/09 02:32:45;;;;;;;18.93;16.97;;;5.90;92.10;;;;;;5050002;28;20485;-67
2023/04/09 02:35:14;;;;;;;17.77;16.10;;;5.80;92.30;;;;;;5050834;28;20455;-67
2023/04/09 02:37:40;;;;;;;17.97;16.23;;;5.90;92.70;;;;;;5050763;28;20455;-67
2023/04/09 02:40:08;;;;;;;16.67;14.93;;;5.90;92.60;;;;;;5050539;28;20548;-67
2023/04/09 02:42:35;;;;;;;19.03;17.20;;;5.90;92.70;;;;;;5053915;28;20817;-67
2023/04/09 02:45:02;;;;;;;19.13;17.30;;;5.70;92.50;;;;;;5053740;28;20444;-67
2023/04/09 02:47:29;;;;;;;17.37;15.70;;;5.70;92.80;;;;;;5053906;28;20974;-67
2023/04/09 02:49:55;;;;;;;17.83;16.03;;;5.60;92.60;;;;;;5054076;28;20535;-67
2023/04/09 02:52:24;;;;;;;19.90;17.03;;;5.60;93.00;;;;;;5053819;28;20484;-66
2023/04/09 02:54:52;;;;;;;19.10;17.30;;;5.70;92.80;;;;;;5053928;28;20447;-67
2023/04/09 02:57:19;;;;;;;20.13;17.97;;;5.60;92.70;;;;;;5054103;28;20441;-67
2023/04/09 02:59:46;;;;;;;18.80;16.90;;;5.50;92.80;;;;;;5053305;28;20482;-67
2023/04/09 03:02:13;;;;;;;19.73;17.67;;;5.40;93.10;;;;;;5053472;28;20584;-67
2023/04/09 03:04:39;;;;;;;19.07;17.17;;;5.40;93.30;;;;;;5053485;28;20462;-67
2023/04/09 03:07:06;;;;;;;20.27;18.33;;;5.50;93.90;;;;;;5053039;28;20446;-67
2023/04/09 03:09:35;;;;;;;17.53;15.83;;;5.60;93.40;;;;;;5053444;28;20464;-67
2023/04/09 03:12:01;;;;;;;18.67;16.67;;;5.60;93.30;;;;;;5053307;28;20483;-67
2023/04/09 03:14:28;;;;;;;17.73;15.93;;;5.80;93.20;;;;;;5053162;28;20449;-67
2023/04/09 03:16:55;;;;;;;17.57;15.80;;;5.70;93.10;;;;;;5053002;28;20453;-67
2023/04/09 03:19:22;;;;;;;16.93;15.13;;;5.80;93.30;;;;;;5053210;28;20470;-67
2023/04/09 03:21:50;;;;;;;18.53;16.63;;;5.80;93.10;;;;;;5053340;28;20489;-67
2023/04/09 03:24:17;;;;;;;19.07;17.07;;;5.80;92.80;;;;;;5053073;28;20457;-67
2023/04/09 03:26:45;;;;;;;19.70;17.70;;;5.80;92.80;;;;;;5053003;28;20447;-67
2023/04/09 03:29:11;;;;;;;18.50;16.60;;;5.90;92.60;;;;;;5052574;28;20449;-67
2023/04/09 03:31:38;;;;;;;16.90;15.20;;;5.90;92.80;;;;;;5053468;28;20823;-67
2023/04/09 03:34:05;;;;;;;17.67;15.83;;;5.90;92.60;;;;;;5053050;28;20493;-67
2023/04/09 03:36:32;;;;;;;17.17;15.33;;;5.90;92.70;;;;;;5053845;28;20443;-66
2023/04/09 03:38:59;;;;;;;17.40;15.60;;;5.90;92.80;;;;;;5053425;28;20469;-66
2023/04/09 03:41:26;;;;;;;18.30;15.80;;;5.80;92.70;;;;;;5052992;28;20497;-66
2023/04/09 03:43:54;;;;;;;17.30;15.70;;;5.80;92.70;;;;;;5053058;28;20449;-67
2023/04/09 03:46:21;;;;;;;18.03;16.13;;;5.90;92.60;;;;;;5052970;28;20445;-67
2023/04/09 03:48:48;;;;;;;17.73;16.03;;;5.90;92.50;;;;;;5053427;28;20486;-67
2023/04/09 03:51:15;;;;;;;17.90;16.00;;;5.90;92.40;;;;;;5053113;28;20466;-67
2023/04/09 03:53:42;;;;;;;17.10;15.40;;;5.90;92.50;;;;;;5051897;28;20491;-67
2023/04/09 03:56:10;;;;;;;18.47;16.57;;;5.80;92.80;;;;;;5053211;28;20456;-67
2023/04/09 03:58:37;;;;;;;17.33;15.53;;;5.70;92.80;;;;;;5053020;28;20470;-67
2023/04/09 04:01:05;;;;;;;18.73;16.67;;;5.80;92.70;;;;;;5053111;28;20480;-67
2023/04/09 04:03:32;;;;;;;16.70;14.90;;;5.70;92.80;;;;;;5053099;28;20447;-67
2023/04/09 04:06:01;;;;;;;18.37;16.57;;;5.80;92.80;;;;;;5053105;28;20452;-67
2023/04/09 04:08:28;;;;;;;16.77;15.07;;;5.80;93.10;;;;;;5053319;28;20519;-67
2023/04/09 04:10:55;;;;;;;17.50;15.70;;;5.80;92.80;;;;;;5052886;28;20472;-67
2023/04/09 04:13:22;;;;;;;17.23;15.47;;;5.80;92.80;;;;;;5052697;28;20480;-67
2023/04/09 04:15:49;;;;;;;18.47;16.60;;;5.70;92.90;;;;;;5052419;28;20450;-67
2023/04/09 04:18:17;;;;;;;18.30;16.20;;;5.80;93.20;;;;;;5052231;28;20448;-67
2023/04/09 04:20:44;;;;;;;18.33;16.53;;;5.70;93.10;;;;;;5052445;28;20465;-67
2023/04/09 04:23:10;;;;;;;18.53;16.43;;;5.70;93.10;;;;;;5051688;28;20449;-67
2023/04/09 04:25:40;;;;;;;17.10;15.40;;;5.70;92.90;;;;;;5052335;28;20445;-67
2023/04/09 04:28:07;;;;;;;18.00;16.23;;;5.60;93.40;;;;;;5052649;28;20461;-67
2023/04/09 04:30:34;;;;;;;17.93;16.03;;;5.60;93.40;;;;;;5052208;28;21023;-67
2023/04/09 04:33:00;;;;;;;16.00;14.30;;;5.60;93.40;;;;;;5052033;28;20480;-67
2023/04/09 04:35:28;;;;;;;17.20;15.40;;;5.60;93.50;;;;;;5051839;28;20444;-67
2023/04/09 04:37:55;;;;;;;17.73;14.87;;;5.60;93.30;;;;;;5052324;28;20444;-67
2023/04/09 04:40:22;;;;;;;19.60;17.03;;;5.70;93.60;;;;;;5052402;28;20475;-67
2023/04/09 04:42:49;;;;;;;16.77;15.07;;;5.80;93.00;;;;;;5052322;28;20462;-67
2023/04/09 04:45:16;;;;;;;17.27;15.47;;;5.70;92.80;;;;;;5052413;28;20458;-66
2023/04/09 04:47:43;;;;;;;17.83;15.93;;;5.60;92.90;;;;;;5052970;28;20455;-67
2023/04/09 04:50:10;;;;;;;16.27;14.57;;;5.70;92.90;;;;;;5052071;28;20853;-66
2023/04/09 04:52:39;;;;;;;17.23;15.30;;;5.80;92.70;;;;;;5051975;28;20475;-67
2023/04/09 04:55:06;;;;;;;16.43;14.70;;;5.80;92.60;;;;;;5053282;28;20446;-66
2023/04/09 04:57:33;;;;;;;16.40;14.70;;;5.80;92.70;;;;;;5053303;28;20450;-68
2023/04/09 05:00:00;;;;;;;16.37;14.67;;;5.70;92.80;;;;;;5052852;28;20573;-68
2023/04/09 05:02:27;;;;;;;18.60;15.80;;;5.70;92.90;;;;;;5051859;28;20451;-68
2023/04/09 05:04:53;;;;;;;20.10;16.10;;;5.80;93.00;;;;;;5052091;28;20451;-68
2023/04/09 05:07:20;;;;;;;17.10;15.10;;;5.80;92.90;;;;;;5051705;28;20456;-67
2023/04/09 05:09:48;;;;;;;17.03;15.10;;;5.80;92.90;;;;;;5051803;28;20470;-68
2023/04/09 05:12:16;;;;;;;15.47;13.93;;;5.80;92.90;;;;;;5052088;28;20444;-68
2023/04/09 05:14:43;;;;;;;17.07;15.37;;;5.80;93.00;;;;;;5050699;28;20458;-66
2023/04/09 05:17:10;;;;;;;19.17;14.87;;;5.80;93.20;;;;;;5051034;28;20452;-67
2023/04/09 05:19:37;;;;;;;17.20;14.10;;;5.90;93.40;;;;;;5050301;28;20471;-66
2023/04/09 05:22:03;;;;;;;16.70;15.00;;;6.00;93.30;;;;;;5051234;28;20448;-67
2023/04/09 05:24:30;;;;;;;16.33;14.70;;;6.00;93.00;;;;;;5050858;28;20451;-67
2023/04/09 05:26:58;;;;;;;16.50;14.90;;;6.20;93.00;;;;;;5050629;28;20544;-67
2023/04/09 05:29:25;;;;;;;16.00;14.30;;;6.20;92.50;;;;;;5050790;28;20471;-67
2023/04/09 05:31:52;;;;;;;16.57;14.87;;;6.20;92.50;;;;;;5050958;28;20446;-67
2023/04/09 05:34:19;;;;;;;16.27;13.80;;;6.20;92.40;;;;;;5050764;28;20849;-67
2023/04/09 05:36:45;;;;;;;16.10;14.57;;;6.10;92.60;;;;;;5050746;28;20453;-67
2023/04/09 05:39:12;;;;;;;17.30;15.57;;;6.10;92.80;;;;;;5050871;28;20458;-66
2023/04/09 05:41:40;;;;;;;15.10;13.63;;;6.20;92.90;;;;;;5050801;28;20444;-67
2023/04/09 05:44:09;;;;;;;15.70;14.20;;;6.30;92.80;;;;;;5050936;28;20447;-67
2023/04/09 05:46:35;;;;;;;17.43;14.77;;;6.40;92.20;;;;;;5051227;28;20763;-67
2023/04/09 05:49:03;;;;;;;17.10;15.33;;;6.40;92.00;;;;;;5051229;28;20448;-67
2023/04/09 05:51:29;;;;;;;17.43;15.07;;;6.40;92.00;;;;;;5051438;28;20595;-67
2023/04/09 05:53:56;;;;;;;16.17;14.57;;;6.50;92.00;;;;;;5050995;28;20702;-67
2023/04/09 05:56:23;;;;;;;17.30;15.00;;;6.50;91.90;;;;;;5051491;28;20830;-66
2023/04/09 05:58:50;;;;;;;16.20;14.50;;;6.60;91.90;;;;;;5051155;28;20544;-67
2023/04/09 06:01:18;;;;;;;15.17;13.67;;;6.70;91.90;;;;;;5050907;28;20479;-67
2023/04/09 06:03:45;;;;;;;17.37;15.53;;;6.70;92.20;;;;;;5050720;28;20535;-67
2023/04/09 06:06:13;;;;;;;17.70;15.83;;;7.00;92.20;;;;;;5050998;28;20472;-67
2023/04/09 06:08:40;;;;;;;17.03;15.43;;;7.20;91.60;;;;;;5050448;28;20525;-68
2023/04/09 06:11:09;;;;;;;16.23;13.13;;;7.50;91.20;;;;;;5050837;28;20513;-67
2023/04/09 06:13:36;;;;;;;15.57;13.97;;;7.80;89.20;;;;;;5050378;28;20478;-67
2023/04/09 06:16:04;;;;;;;17.10;15.30;;;7.90;89.10;;;;;;5051724;28;20961;-67
2023/04/09 06:18:33;;;;;;;15.63;14.13;;;8.20;88.20;;;;;;5054620;28;20443;-68
2023/04/09 06:21:03;;;;;;;15.53;14.13;;;8.40;87.10;;;;;;5054123;28;20460;-68
2023/04/09 06:23:30;;;;;;;25.70;23.03;;;8.50;87.50;;;;;;5054116;28;20441;-70
2023/04/09 06:25:57;;;;;;;15.03;13.53;;;8.70;85.40;;;;;;5054153;28;20445;-67
2023/04/09 06:28:24;;;;;;;14.60;13.20;;;8.50;86.00;;;;;;5054723;28;20451;-66
2023/04/09 06:30:52;;;;;;;15.70;13.93;;;8.50;87.00;;;;;;5055780;28;20971;-67
2023/04/09 06:33:19;;;;;;;15.50;13.80;;;8.40;87.40;;;;;;5055655;28;20480;-67
2023/04/09 06:35:47;;;;;;;15.40;13.77;;;8.30;87.20;;;;;;5055334;28;20520;-67
2023/04/09 06:38:14;;;;;;;13.87;12.43;;;8.30;87.20;;;;;;5055130;28;20449;-68
2023/04/09 06:40:41;;;;;;;15.63;12.90;;;8.30;85.50;;;;;;5054724;28;20483;-67
2023/04/09 06:43:08;;;;;;;13.70;12.40;;;8.30;85.00;;;;;;5053745;28;20453;-66
2023/04/09 06:45:36;;;;;;;14.90;13.40;;;8.30;85.30;;;;;;5054529;28;20962;-69
2023/04/09 06:48:03;;;;;;;13.70;12.40;;;8.30;84.30;;;;;;5054413;28;20458;-67
2023/04/09 06:50:30;;;;;;;12.80;11.60;;;8.20;84.50;;;;;;5054002;28;20470;-67
2023/04/09 06:52:58;;;;;;;14.10;12.37;;;8.30;83.20;;;;;;5053712;28;21079;-67
2023/04/09 06:55:26;;;;;;;15.20;12.00;;;8.30;82.70;;;;;;5053434;28;20460;-67
2023/04/09 06:57:53;;;;;;;12.87;11.50;;;8.30;83.20;;;;;;5053643;28;20464;-66
2023/04/09 07:00:21;;;;;;;14.23;12.50;;;8.40;83.50;;;;;;5054108;28;20477;-66
2023/04/09 07:02:48;;;;;;;14.00;12.50;;;8.40;81.60;;;;;;5054165;28;20445;-66
2023/04/09 07:05:15;;;;;;;13.30;11.90;;;8.40;82.10;;;;;;5054195;28;20467;-68
2023/04/09 07:07:42;;;;;;;12.77;11.47;;;8.50;81.60;;;;;;5054063;28;20448;-66
2023/04/09 07:10:11;;;;;;;13.20;12.00;;;8.60;80.50;;;;;;5055022;28;20564;-69
2023/04/09 07:12:38;;;;;;;15.00;13.20;;;8.70;80.40;;;;;;5052847;28;20531;-66
2023/04/09 07:15:06;;;;;;;13.33;11.80;;;8.80;79.40;;;;;;5053236;28;20476;-66
2023/04/09 07:17:33;;;;;;;11.73;10.60;;;8.80;78.10;;;;;;5053378;28;20964;-67
2023/04/09 07:20:00;;;;;;;12.90;11.70;;;8.90;78.60;;;;;;5054066;28;20976;-67
2023/04/09 07:22:28;;;;;;;12.00;10.80;;;9.00;77.80;;;;;;5052962;28;20469;-66
2023/04/09 07:24:55;;;;;;;11.73;10.50;;;9.10;76.70;;;;;;5052226;28;20453;-67
2023/04/09 07:27:24;;;;;;;13.13;11.80;;;9.20;76.50;;;;;;5052080;28;20456;-67
2023/04/09 07:29:51;;;;;;;13.63;12.33;;;9.30;75.70;;;;;;5051736;28;20476;-67
2023/04/09 07:32:18;;;;;;;13.63;12.23;;;9.30;74.20;;;;;;5051716;28;20462;-67
2023/04/09 07:34:47;;;;;;;12.60;11.40;;;9.40;75.60;;;;;;5051036;28;21000;-68
2023/04/09 07:37:14;;;;;;;12.53;11.30;;;9.40;76.10;;;;;;5051419;28;20453;-68
2023/04/09 07:39:41;;;;;;;12.93;11.63;;;9.50;74.80;;;;;;5051533;28;20471;-68
2023/04/09 07:42:08;;;;;;;12.23;10.97;;;9.60;75.50;;;;;;5051716;28;20468;-66
2023/04/09 07:44:37;;;;;;;12.40;11.10;;;9.80;73.40;;;;;;5050763;28;21039;-66
2023/04/09 07:47:05;;;;;;;11.67;10.57;;;10.00;72.10;;;;;;5051232;28;20444;-66
2023/04/09 07:49:32;;;;;;;12.77;11.47;;;10.10;71.20;;;;;;5053503;28;20875;-67
2023/04/09 07:51:59;;;;;;;12.40;11.20;;;10.20;71.90;;;;;;5054310;28;20977;-67
2023/04/09 07:54:27;;;;;;;14.67;13.17;;;10.30;71.10;;;;;;5051045;28;20878;-67
2023/04/09 07:56:55;;;;;;;12.70;11.50;;;10.60;72.70;;;;;;5051412;28;20451;-67
2023/04/09 07:59:22;;;;;;;11.47;10.37;;;10.80;71.90;;;;;;5051313;28;20468;-66
2023/04/09 08:01:50;;;;;;;12.20;11.00;;;11.20;68.40;;;;;;5050614;28;20455;-66
2023/04/09 08:04:17;;;;;;;11.03;10.10;;;11.40;65.10;;;;;;5050743;28;20293;-66
2023/04/09 08:06:48;;;;;;;11.70;10.60;;;11.50;64.20;;;;;;5051289;28;20462;-66
2023/04/09 08:09:15;;;;;;;11.50;10.40;;;11.50;64.60;;;;;;5051535;28;20480;-67
2023/04/09 08:11:44;;;;;;;8.60;7.70;;;11.80;62.70;;;;;;5052803;28;20477;-67
2023/04/09 08:14:12;;;;;;;7.60;6.20;;;12.00;59.20;;;;;;5051687;28;20579;-67
2023/04/09 08:16:40;;;;;;;7.00;6.30;;;12.00;56.20;;;;;;5051058;28;20461;-67
2023/04/09 08:19:08;;;;;;;7.10;6.50;;;11.90;56.40;;;;;;5047997;28;20455;-66
2023/04/09 08:21:37;;;;;;;7.60;6.97;;;11.70;56.70;;;;;;5046455;28;20448;-67
2023/04/09 08:24:06;;;;;;;8.53;7.73;;;11.70;56.70;;;;;;5050553;28;20961;-67
2023/04/09 08:26:32;;;;;;;8.43;7.63;;;11.60;58.30;;;;;;5048946;28;20467;-66
2023/04/09 08:28:59;;;;;;;7.67;6.87;;;11.60;57.50;;;;;;5060141;28;20556;-66
2023/04/09 08:31:26;;;;;;;8.17;7.37;;;11.60;57.20;;;;;;5044075;28;20476;-68
2023/04/09 08:33:53;;;;;;;7.43;6.80;;;11.70;55.20;;;;;;5049106;28;20859;-69
2023/04/09 08:36:22;;;;;;;8.67;7.87;;;11.90;55.10;;;;;;5039925;28;20469;-66
2023/04/09 08:38:48;;;;;;;9.13;8.23;;;12.00;55.60;;;;;;5049789;28;20457;-67
2023/04/09 08:41:19;;;;;;;10.03;9.03;;;12.10;56.70;;;;;;5049995;28;20555;-66
2023/04/09 08:43:47;;;;;;;9.47;8.50;;;12.20;57.70;;;;;;5049866;28;20449;-67
2023/04/09 08:46:15;;;;;;;9.67;8.80;;;12.20;56.60;;;;;;5049889;28;20826;-68
2023/04/09 08:48:43;;;;;;;8.70;7.90;;;12.30;57.70;;;;;;5050553;28;20451;-66
2023/04/09 08:51:13;;;;;;;9.30;8.50;;;12.50;57.40;;;;;;5050331;28;20853;-67
2023/04/09 08:53:45;;;;;;;8.67;7.87;;;12.70;55.40;;;;;;5047792;28;20447;-67
2023/04/09 08:56:12;;;;;;;9.03;8.23;;;12.80;56.10;;;;;;5053255;28;20497;-67
2023/04/09 08:58:44;;;;;;;7.93;7.23;;;12.90;54.70;;;;;;5054317;28;20443;-67
2023/04/09 09:01:21;;;;;;;9.23;8.43;;;13.00;54.30;;;;;;5048472;28;20467;-65
2023/04/09 09:03:57;;;;;;;7.20;6.50;;;13.10;54.50;;;;;;5049208;28;20439;-67
2023/04/09 09:06:27;;;;;;;8.13;7.43;;;13.30;52.60;;;;;;5048004;28;20432;-67
2023/04/09 09:09:04;;;;;;;7.77;7.07;;;13.60;52.50;;;;;;5048868;28;20484;-67
2023/04/09 09:11:31;;;;;;;6.97;6.37;;;13.70;51.50;;;;;;5046990;28;20439;-67
2023/04/09 09:13:59;;;;;;;7.47;6.80;;;13.80;52.10;;;;;;5048774;28;20479;-67
2023/04/09 09:16:26;;;;;;;8.00;7.30;;;13.90;52.60;;;;;;5047599;28;20498;-67
2023/04/09 09:18:54;;;;;;;6.83;6.23;;;14.00;50.40;;;;;;5049973;28;20814;-67
2023/04/09 09:21:21;;;;;;;8.57;7.77;;;14.10;50.40;;;;;;5049706;28;20470;-67
2023/04/09 09:23:49;;;;;;;7.73;7.03;;;14.20;49.80;;;;;;5049948;28;20443;-68
2023/04/09 09:26:19;;;;;;;6.90;6.30;;;14.50;49.70;;;;;;5044864;28;20808;-67
2023/04/09 09:28:47;;;;;;;6.43;5.87;;;15.00;47.90;;;;;;5047160;28;20806;-70
2023/04/09 09:31:15;;;;;;;6.63;6.13;;;15.50;46.20;;;;;;5045410;28;20473;-66
2023/04/09 09:33:42;;;;;;;6.77;6.17;;;15.80;45.30;;;;;;5048227;28;20451;-65
2023/04/09 09:36:09;;;;;;;7.37;6.70;;;16.20;45.40;;;;;;5041719;28;20451;-68
2023/04/09 09:38:52;;;;;;;7.17;6.47;;;16.50;44.50;;;;;;5049211;28;20479;-71
2023/04/09 09:41:20;;;;;;;6.97;6.47;;;16.60;44.70;;;;;;5048973;28;20464;-67
2023/04/09 09:43:47;;;;;;;6.60;6.10;;;16.50;43.90;;;;;;5047481;28;20455;-67
2023/04/09 09:46:15;;;;;;;6.07;5.57;;;16.10;43.90;;;;;;5045869;28;20443;-68
2023/04/09 09:48:42;;;;;;;7.83;7.23;;;16.00;44.10;;;;;;5043236;28;20451;-69
2023/04/09 09:51:11;;;;;;;7.60;6.90;;;16.20;44.10;;;;;;5048219;28;20461;-67
2023/04/09 09:53:40;;;;;;;8.20;7.50;;;16.00;45.00;;;;;;5048558;28;20534;-70
2023/04/09 09:56:11;;;;;;;6.13;5.63;;;16.00;45.90;;;;;;5035621;28;20485;-69
2023/04/09 09:58:43;;;;;;;7.13;6.50;;;16.50;43.90;;;;;;5031798;28;20452;-68
2023/04/09 10:01:13;;;;;;;7.00;6.47;;;16.40;41.90;;;;;;5032384;28;20486;-68
2023/04/09 10:03:43;;;;;;;6.57;6.00;;;15.80;42.80;;;;;;5032626;28;20462;-68
2023/04/09 10:06:10;;;;;;;8.07;7.27;;;15.90;44.70;;;;;;5032989;28;20441;-67
2023/04/09 10:08:39;;;;;;;8.97;8.27;;;16.00;44.50;;;;;;5033305;28;20452;-69
2023/04/09 10:11:07;;;;;;;8.63;7.93;;;15.90;46.70;;;;;;5033245;28;20468;-68
2023/04/09 10:13:38;;;;;;;9.20;8.40;;;16.00;46.20;;;;;;5032790;28;20451;-68
2023/04/09 10:16:08;;;;;;;8.13;7.53;;;16.30;44.10;;;;;;5033148;28;20477;-68
2023/04/09 10:18:37;;;;;;;8.83;8.13;;;16.70;44.70;;;;;;5033167;28;20895;-68
2023/04/09 10:21:10;;;;;;;6.90;6.40;;;16.70;44.50;;;;;;5032993;28;20475;-68
2023/04/09 10:23:40;;;;;;;6.80;6.17;;;17.00;44.00;;;;;;5032580;28;20509;-68
2023/04/09 10:26:09;;;;;;;6.03;5.53;;;17.30;40.80;;;;;;5032931;28;20496;-67
2023/04/09 10:28:37;;;;;;;5.87;5.27;;;17.30;40.20;;;;;;5033299;28;20449;-68
2023/04/09 10:31:07;;;;;;;5.77;5.37;;;17.50;40.00;;;;;;5032968;28;20469;-69
2023/04/09 10:33:36;;;;;;;5.57;5.13;;;17.80;39.20;;;;;;5032770;28;20453;-70
2023/04/09 10:36:05;;;;;;;5.33;4.90;;;17.60;37.50;;;;;;5032695;28;20488;-68
2023/04/09 10:38:37;;;;;;;5.37;4.90;;;17.00;39.50;;;;;;5033062;28;21086;-68
2023/04/09 10:41:09;;;;;;;6.43;5.93;;;16.60;40.80;;;;;;5032983;28;20879;-68
2023/04/09 10:43:36;;;;;;;6.13;5.67;;;16.30;41.50;;;;;;5032275;28;20452;-68
2023/04/09 10:46:24;;;;;;;6.53;6.03;;;16.40;41.10;;;;;;5032708;28;20539;-68
2023/04/09 10:49:08;;;;;;;6.20;5.60;;;16.70;41.00;;;;;;5032712;28;20444;-68
2023/04/09 10:51:37;;;;;;;6.60;6.00;;;17.70;40.10;;;;;;5032662;28;20448;-68
2023/04/09 10:54:04;;;;;;;5.80;5.27;;;18.50;38.40;;;;;;5031880;28;20959;-68
2023/04/09 10:56:31;;;;;;;5.83;5.37;;;18.20;37.60;;;;;;5032564;28;20449;-68
2023/04/09 10:58:58;;;;;;;5.30;4.90;;;17.80;38.30;;;;;;5032102;28;20448;-67
2023/04/09 11:01:27;;;;;;;6.30;5.80;;;17.50;38.50;;;;;;5031687;28;20526;-67
2023/04/09 11:04:08;;;;;;;5.20;4.80;;;17.70;40.00;;;;;;5031892;28;20911;-67
2023/04/09 11:06:37;;;;;;;5.07;4.67;;;18.20;37.30;;;;;;5032257;28;20467;-66
2023/04/09 11:09:04;;;;;;;6.47;5.97;;;18.50;37.90;;;;;;5032216;28;20540;-67
2023/04/09 11:11:32;;;;;;;4.97;4.57;;;18.10;37.50;;;;;;5031935;28;20445;-67
2023/04/09 11:14:00;;;;;;;5.80;5.40;;;17.80;37.80;;;;;;5032016;28;20507;-68
2023/04/09 11:16:29;;;;;;;5.70;5.30;;;18.00;38.80;;;;;;5032272;28;20491;-68
2023/04/09 11:18:56;;;;;;;5.70;5.30;;;18.70;37.50;;;;;;5032154;28;20510;-68
2023/04/09 11:21:27;;;;;;;5.27;4.87;;;19.60;35.90;;;;;;5032076;28;20591;-67
2023/04/09 11:23:54;;;;;;;5.50;5.10;;;20.60;33.30;;;;;;5031816;28;20541;-68
2023/04/09 11:26:25;;;;;;;4.63;4.33;;;20.70;34.40;;;;;;5031758;28;20805;-67
2023/04/09 11:28:56;;;;;;;4.50;4.17;;;21.10;31.70;;;;;;5032036;28;20457;-67
2023/04/09 11:31:28;;;;;;;4.90;4.60;;;21.60;31.70;;;;;;5031857;28;20534;-68
2023/04/09 11:33:55;;;;;;;5.33;4.83;;;21.70;30.40;;;;;;5031622;28;20522;-67
2023/04/09 11:36:22;;;;;;;5.00;4.60;;;21.60;29.70;;;;;;5031751;28;20484;-68
2023/04/09 11:38:49;;;;;;;5.07;4.67;;;21.40;31.80;;;;;;5031644;28;21004;-68
2023/04/09 11:41:16;;;;;;;4.53;4.23;;;21.20;32.00;;;;;;5031800;28;20482;-68
2023/04/09 11:43:43;;;;;;;4.50;4.20;;;22.00;30.80;;;;;;5031384;28;20963;-68
2023/04/09 11:46:10;;;;;;;5.07;4.67;;;22.50;29.90;;;;;;5031627;28;20437;-68
2023/04/09 11:48:38;;;;;;;5.27;4.87;;;22.50;30.90;;;;;;5031866;28;20449;-67
2023/04/09 11:51:06;;;;;;;5.80;5.40;;;22.80;30.00;;;;;;5031293;28;20465;-68
2023/04/09 11:53:32;;;;;;;6.23;5.73;;;22.90;29.70;;;;;;5031181;28;20472;-67
2023/04/09 11:56:00;;;;;;;5.83;5.43;;;23.20;31.70;;;;;;5031250;28;20480;-69
2023/04/09 11:58:27;;;;;;;5.90;5.40;;;23.40;30.20;;;;;;5031592;28;20448;-67
2023/04/09 12:00:55;;;;;;;5.43;5.03;;;24.20;29.60;;;;;;5031215;28;20867;-68
2023/04/09 12:03:28;;;;;;;6.20;5.70;;;24.60;27.50;;;;;;5031263;28;20503;-67
2023/04/09 12:05:57;;;;;;;5.00;4.70;;;25.50;28.90;;;;;;5031195;28;21011;-67
2023/04/09 12:08:24;;;;;;;5.70;4.80;;;25.50;27.20;;;;;;5031269;28;20930;-67
2023/04/09 12:10:51;;;;;;;5.00;4.60;;;25.80;27.00;;;;;;5031330;28;20539;-67
2023/04/09 12:13:20;;;;;;;4.87;4.50;;;25.70;26.90;;;;;;5030168;28;20460;-67
2023/04/09 12:15:49;;;;;;;4.50;4.20;;;26.20;25.40;;;;;;5031367;28;20476;-69
2023/04/09 12:18:16;;;;;;;4.70;4.30;;;25.90;25.60;;;;;;5031163;28;20455;-68
2023/04/09 12:20:45;;;;;;;4.47;4.17;;;26.10;26.50;;;;;;5030927;28;20487;-68
2023/04/09 12:23:14;;;;;;;4.27;3.97;;;26.50;26.60;;;;;;5031134;28;20484;-68
2023/04/09 12:25:41;;;;;;;5.33;4.93;;;26.80;24.80;;;;;;5031210;28;20915;-67
2023/04/09 12:28:11;;;;;;;4.50;4.10;;;27.20;25.00;;;;;;5031326;28;20835;-67
2023/04/09 12:30:37;;;;;;;5.03;4.63;;;26.80;25.00;;;;;;5030931;28;20833;-68
2023/04/09 12:33:05;;;;;;;4.70;4.30;;;27.00;23.90;;;;;;5030496;28;20475;-68
2023/04/09 12:35:33;;;;;;;4.63;4.33;;;26.50;25.90;;;;;;5030904;28;20568;-67
2023/04/09 12:38:00;;;;;;;4.70;4.33;;;26.30;26.20;;;;;;5030815;28;20453;-67
2023/04/09 12:40:28;;;;;;;5.07;4.67;;;26.00;27.30;;;;;;5030637;28;20990;-68
2023/04/09 12:42:55;;;;;;;5.73;5.33;;;25.10;26.40;;;;;;5030119;28;20453;-67
2023/04/09 12:45:22;;;;;;;5.30;4.90;;;23.60;26.80;;;;;;5030207;28;20449;-67